Monday, March 02, 2015
23:08 UTC
  |  Log In   |  Register Free
Airport Search:

Corpus Christi International Airport
(KCRP)

FAA data valid effective January 08, 2015 - March 05, 2015 (unless otherwise noted).

 
 
 
 
 
 
 
 
 
 
 
 
 
 

Current Aviation Weather for Corpus Christi International Airport (KCRP)

The most recent METAR observation for KCRP was updated at: 2209
METAR Summary (Translated METAR)
KCRP
022151Z 01007KT 1SM -DZ BR OVC005 12/11 A3016 RMK AO2 SFC VIS 2 1/2 DZB49 SLP212 P0000 T01220111
KRBO
022155Z AUTO 02004KT 2 1/2SM BR OVC003 12/12 A3016 RMK AO2 T01180116
(10.1 nm NW from KCRP)
KNGP
022156Z 02005KT 2 1/2SM BR OVC004 12/12 A3016 RMK AO2 SLP212 T01220117
(12.1 nm SE from KCRP)
TAF Summary (Translated TAF)
KCRP
021735Z 0218/0318 02010KT 2SM -DZ OVC004 TEMPO 0218/0222 3/4SM -DZ BR OVC002 FM030100 03008KT 2SM -DZ BR OVC004 FM030500 05007KT 1/2SM -RA FG OVC002 FM031630 12005KT 3SM -DZ BR OVC008
KNGP
(12.1 nm SE from KCRP)
0215/0315 01013KT 3200 BR OVC004 QNH3022INS TEMPO 0215/0219 1200 -DZ BR OVC002 FM021900 03010KT 6000 BR BKN004 OVC006 QNH3011INS TEMPO 0219/0301 05008KT 1600 -DZ BR SCT004 OVC006 FM030100 05006KT 3200 BR FEW002 OVC004 QNH3012INS TEMPO 0301/0307 VRB06KT 0800 -DZ FG OVC002 FM030700 VRB06KT 1600 BR OVC002 QNH3001INS TEMPO 0309/0315 0800 FG T13/0221Z T12/0312Z FN20043
  Airport Weather Conditions for KCRP

 Current Weather at CRP
54° F
Light Drizzle Fog/Mist
North winds at 8.1 mph
CRP NOAA Radar

Pressure: 30.16 in
Humidity: 93%
Wind: North at 8.1 MPH (7 KT)
Dew Point: 52.0°F
Visibility: 1.00 mi


Airport Weather Forecast for KCRP

Translated METAR and TAF for KCRP
Translated METAR for KCRP (2308 UTC 02 March 2015)
found at http://aviationweather.gov/adds/metars/
 
METAR text: KCRP 022251Z 01007KT 1SM -DZ BR OVC004 12/11 A3015 RMK AO2 SFC VIS 2 SLP208 VIS N 3 P0000 T01220111
Conditions at: KCRP (CORPUS CHRISTI , TX, US) observed 2251 UTC 02 March 2015
Temperature: 12.2°C (54°F)
Dewpoint: 11.1°C (52°F) [RH = 93%]
Pressure (altimeter): 30.15 inches Hg (1021.1 mb)
[Sea-level pressure: 1020.8 mb]
Winds: from the N (10 degrees) at 8 MPH (7 knots; 3.6 m/s)
Visibility: 1.00 miles (1.61 km)
Ceiling: 400 feet AGL
Clouds: overcast cloud deck at 400 feet AGL
Weather: -DZ BR  (light drizzle, mist)
Translated TAF for KCRP
Forecast for: KCRP (CORPUS CHRISTI , TX, US)
TAF Text: KCRP 021735Z 0218/0318 02010KT 2SM -DZ OVC004
Forecast period: 1800 UTC 02 March 2015 to 0100 UTC 03 March 2015
Forecast type: FROM: standard forecast or significant change
Winds: from the NNE (20 degrees) at 12 MPH (10 knots; 5.2 m/s)
Visibility: 2.00 miles (3.22 km)
Ceiling: 400 feet AGL
Clouds: overcast cloud deck at 400 feet AGL
Weather: -DZ  (light drizzle)
TAF Text: TEMPO 0218/0222 3/4SM -DZ BR OVC002
Forecast period: 1800 to 2200 UTC 02 March 2015
Forecast type: TEMPORARY: The following changes expected for less than half the time period
Visibility: 0.75 miles (1.21 km)
Ceiling: 200 feet AGL
Clouds: overcast cloud deck at 200 feet AGL
Weather: -DZ BR  (light drizzle, mist)
TAF Text: FM030100 03008KT 2SM -DZ BR OVC004
Forecast period: 0100 to 0500 UTC 03 March 2015
Forecast type: FROM: standard forecast or significant change
Winds: from the NNE (30 degrees) at 9 MPH (8 knots; 4.2 m/s)
Visibility: 2.00 miles (3.22 km)
Ceiling: 400 feet AGL
Clouds: overcast cloud deck at 400 feet AGL
Weather: -DZ BR  (light drizzle, mist)
TAF Text: FM030500 05007KT 1/2SM -RA FG OVC002
Forecast period: 0500 to 1630 UTC 03 March 2015
Forecast type: FROM: standard forecast or significant change
Winds: from the NE (50 degrees) at 8 MPH (7 knots; 3.6 m/s)
Visibility: 0.50 miles (0.80 km)
Ceiling: 200 feet AGL
Clouds: overcast cloud deck at 200 feet AGL
Weather: -RA FG  (light rain, fog)
TAF Text: FM031630 12005KT 3SM -DZ BR OVC008
Forecast period: 1630 to 1800 UTC 03 March 2015
Forecast type: FROM: standard forecast or significant change
Winds: from the ESE (120 degrees) at 6 MPH (5 knots; 2.6 m/s)
Visibility: 3 miles (5 km)
Ceiling: 800 feet AGL
Clouds: overcast cloud deck at 800 feet AGL
Weather: -DZ BR  (light drizzle, mist)

Find All Airport Services Find A Hotel Find A Rental Car Find A Golf Course Find A Restaurant $100 Hamburger



FBO's on the Field
FBO Company Facility Photos Services Transportation Aviation Fuel Prices: Prices include tax
Catering Weather Repair Courtesy Rental Type 100LL JetA JetA+ MOGAS 8087
 
Atlantic Aviation

This FBO has not yet been rated
FS:Independent
Last Updated: Mar-02
Login to update fuel prices
SS:
Contact Atlantic AviationMore FBO Information
 
Signature Flight Support

This FBO has not yet been rated
FS:Avfuel
Last Updated: Mar-02
Login to update fuel prices
SS:
Contact Signature Flight SupportMore FBO Information
 
Add another FBO Facility Photos Catering Weather Repair Courtesy Rental Type 100LL JetA JetA+ MOGAS 8087
Services Transportation Aviation Fuel Prices: Prices include tax


model-print
model-print
model-print
model-print